Time;durP1;ratioP1;P1;durP2;ratioP2;P2;SDS_P1;SDS_P2;PMS_P1;PMS_P2;Temp;Humidity;BMP_temperature;BMP_pressure;BME280_temperature;BME280_humidity;BME280_pressure;Samples;Min_cycle;Max_cycle;Signal;HPM_P1;HPM_P2
2024/03/25 00:00:13;;;;;;;20.27;4.82;;;7.60;99.90;;;;;;4161353;28;20033;-62
2024/03/25 00:02:13;;;;;;;18.17;4.97;;;7.60;99.90;;;;;;4161423;28;20386;-59
2024/03/25 00:04:14;;;;;;;21.65;4.45;;;7.60;99.90;;;;;;4162440;28;20037;-59
2024/03/25 00:06:14;;;;;;;15.98;4.32;;;7.60;99.90;;;;;;4161816;28;20482;-59
2024/03/25 00:08:15;;;;;;;17.70;4.10;;;7.60;99.90;;;;;;4162495;28;20039;-59
2024/03/25 00:10:16;;;;;;;14.80;3.67;;;7.60;99.90;;;;;;4159578;28;20125;-59
2024/03/25 00:12:16;;;;;;;16.17;4.00;;;7.60;99.90;;;;;;4158116;28;20051;-59
2024/03/25 00:14:17;;;;;;;17.42;4.47;;;7.50;99.90;;;;;;4157777;28;20060;-59
2024/03/25 00:16:17;;;;;;;20.10;4.47;;;7.60;99.90;;;;;;4152038;28;20402;-59
2024/03/25 00:18:18;;;;;;;21.45;4.18;;;7.50;99.90;;;;;;4160609;28;20037;-59
2024/03/25 00:20:19;;;;;;;12.85;3.25;;;7.50;99.90;;;;;;4161774;28;20052;-59
2024/03/25 00:22:20;;;;;;;19.75;3.25;;;7.50;99.90;;;;;;4162127;28;20040;-63
2024/03/25 00:24:21;;;;;;;15.00;3.80;;;7.60;99.90;;;;;;4160863;28;20504;-60
2024/03/25 00:26:22;;;;;;;16.30;4.03;;;7.50;99.90;;;;;;4161534;28;20034;-59
2024/03/25 00:28:23;;;;;;;14.05;3.13;;;7.50;99.90;;;;;;4162237;28;20032;-59
2024/03/25 00:30:24;;;;;;;13.27;2.83;;;7.50;99.90;;;;;;4161646;28;20120;-59
2024/03/25 00:32:24;;;;;;;9.63;2.88;;;7.50;99.90;;;;;;4162139;28;20044;-59
2024/03/25 00:34:25;;;;;;;13.10;3.33;;;7.50;99.90;;;;;;4161771;28;20113;-62
2024/03/25 00:36:25;;;;;;;10.82;2.97;;;7.50;99.90;;;;;;4161606;28;20033;-60
2024/03/25 00:38:26;;;;;;;11.60;2.42;;;7.50;99.90;;;;;;4160497;28;20030;-60
2024/03/25 00:40:27;;;;;;;11.27;3.22;;;7.50;99.90;;;;;;4160149;28;20065;-59
2024/03/25 00:42:27;;;;;;;12.63;2.95;;;7.50;99.90;;;;;;4162151;28;20379;-59
2024/03/25 00:44:28;;;;;;;9.18;2.80;;;7.50;99.90;;;;;;4162000;28;20525;-59
2024/03/25 00:46:28;;;;;;;15.77;3.10;;;7.40;99.90;;;;;;4160966;28;20033;-60
2024/03/25 00:48:29;;;;;;;15.98;4.03;;;7.40;99.90;;;;;;4159317;28;20065;-59
2024/03/25 00:50:30;;;;;;;16.33;3.67;;;7.40;99.90;;;;;;4161418;28;20515;-59
2024/03/25 00:52:31;;;;;;;11.30;2.70;;;7.40;99.90;;;;;;4160665;28;20502;-60
2024/03/25 00:54:31;;;;;;;12.75;3.20;;;7.40;99.90;;;;;;4162017;28;20095;-59
2024/03/25 00:56:32;;;;;;;12.57;3.42;;;7.30;99.90;;;;;;4161375;28;20087;-59
2024/03/25 00:58:33;;;;;;;18.55;4.25;;;7.30;99.90;;;;;;4161792;28;20034;-59
2024/03/25 01:00:33;;;;;;;11.80;3.22;;;7.40;99.90;;;;;;4161426;28;20117;-59
2024/03/25 01:02:34;;;;;;;15.05;3.75;;;7.40;99.90;;;;;;4162236;28;20083;-71
2024/03/25 01:04:34;;;;;;;18.27;3.78;;;7.30;99.90;;;;;;4162203;28;20060;-64
2024/03/25 01:06:35;;;;;;;14.20;3.78;;;7.30;99.90;;;;;;4159223;28;20118;-64
2024/03/25 01:08:35;;;;;;;14.75;3.58;;;7.30;99.90;;;;;;4161958;28;20147;-64
2024/03/25 01:10:36;;;;;;;15.18;3.85;;;7.30;99.90;;;;;;4161261;28;20068;-64
2024/03/25 01:12:37;;;;;;;16.05;3.05;;;7.30;99.90;;;;;;4161877;28;20033;-69
2024/03/25 01:14:37;;;;;;;12.27;2.80;;;7.20;99.90;;;;;;4160984;28;20056;-65
2024/03/25 01:16:38;;;;;;;20.75;3.83;;;7.20;99.90;;;;;;4160743;28;20091;-65
2024/03/25 01:18:38;;;;;;;15.23;3.40;;;7.20;99.90;;;;;;4160671;28;20132;-66
2024/03/25 01:20:39;;;;;;;19.45;3.78;;;7.20;99.90;;;;;;4159561;28;20466;-66
2024/03/25 01:22:40;;;;;;;12.93;3.00;;;7.20;99.90;;;;;;4160403;28;20037;-65
2024/03/25 01:24:40;;;;;;;12.93;2.95;;;7.10;99.90;;;;;;4161856;28;20034;-65
2024/03/25 01:26:41;;;;;;;16.88;3.25;;;7.10;99.90;;;;;;4161225;28;20021;-66
2024/03/25 01:28:41;;;;;;;15.23;3.50;;;7.20;99.90;;;;;;4160374;28;20029;-66
2024/03/25 01:30:43;;;;;;;23.40;4.13;;;7.10;99.90;;;;;;4161332;28;20382;-65
2024/03/25 01:32:44;;;;;;;17.38;3.97;;;7.10;99.90;;;;;;4158465;28;20508;-66
2024/03/25 01:34:45;;;;;;;14.73;3.92;;;7.10;99.90;;;;;;4160625;28;20030;-65
2024/03/25 01:36:45;;;;;;;13.32;2.90;;;7.10;99.90;;;;;;4160681;28;20025;-65
2024/03/25 01:38:46;;;;;;;13.73;3.40;;;7.10;99.90;;;;;;4161707;28;20033;-65
2024/03/25 01:40:47;;;;;;;15.80;3.60;;;7.10;99.90;;;;;;4160234;28;20095;-65
2024/03/25 01:43:01;;;;;;;11.25;3.13;;;7.10;99.90;;;;;;4161810;28;20029;-66
2024/03/25 01:45:03;;;;;;;11.27;2.92;;;7.10;99.90;;;;;;4161410;28;20061;-67
2024/03/25 01:47:04;;;;;;;10.75;2.88;;;7.10;99.90;;;;;;4161236;28;20044;-65
2024/03/25 01:49:04;;;;;;;12.45;3.40;;;7.10;99.90;;;;;;4161133;28;20037;-65
2024/03/25 01:51:05;;;;;;;14.40;3.70;;;7.10;99.90;;;;;;4160530;28;20041;-66
2024/03/25 01:53:07;;;;;;;13.70;3.08;;;7.10;99.90;;;;;;4163410;28;20363;-65
2024/03/25 01:55:12;;;;;;;12.20;2.83;;;7.00;99.90;;;;;;4162754;28;20490;-68
2024/03/25 01:57:14;;;;;;;16.38;3.60;;;7.00;99.90;;;;;;4161887;28;20045;-66
2024/03/25 01:59:16;;;;;;;12.95;3.45;;;7.00;99.90;;;;;;4162982;28;20083;-65
2024/03/25 02:01:19;;;;;;;;;;;7.00;99.90;;;;;;4162780;28;20109;-66
2024/03/25 02:03:20;;;;;;;13.87;3.13;;;7.00;99.90;;;;;;4162862;28;20368;-65
2024/03/25 02:05:21;;;;;;;13.35;3.40;;;7.00;99.90;;;;;;4163447;28;20299;-66
2024/03/25 02:07:24;;;;;;;14.35;3.50;;;6.90;99.90;;;;;;4164224;28;20049;-65
2024/03/25 02:09:27;;;;;;;14.73;3.28;;;6.90;99.90;;;;;;4163176;28;20091;-66
2024/03/25 02:11:28;;;;;;;14.20;2.87;;;6.90;99.90;;;;;;4163632;28;20084;-65
2024/03/25 02:13:29;;;;;;;20.27;3.50;;;6.90;99.90;;;;;;4162933;28;20039;-66
2024/03/25 02:15:30;;;;;;;11.18;3.38;;;6.90;99.90;;;;;;4163671;28;20417;-66
2024/03/25 02:17:31;;;;;;;13.45;3.72;;;6.80;99.90;;;;;;4164372;28;20037;-66
2024/03/25 02:19:32;;;;;;;13.57;3.30;;;6.90;99.90;;;;;;4164409;28;20037;-66
2024/03/25 02:21:32;;;;;;;14.32;2.95;;;6.80;99.90;;;;;;4163690;28;20431;-66
2024/03/25 02:23:36;;;;;;;10.40;3.00;;;6.80;99.90;;;;;;4163811;28;20033;-65
2024/03/25 02:25:38;;;;;;;15.80;3.90;;;6.70;99.90;;;;;;4162434;28;20478;-65
2024/03/25 02:27:39;;;;;;;13.80;3.33;;;6.70;99.90;;;;;;4164233;28;20034;-66
2024/03/25 02:29:40;;;;;;;12.70;3.55;;;6.80;99.90;;;;;;4164156;28;20091;-65
2024/03/25 02:31:41;;;;;;;13.30;3.25;;;6.70;99.90;;;;;;4163458;28;20073;-65
2024/03/25 02:33:42;;;;;;;13.18;3.28;;;6.70;99.90;;;;;;4161880;28;20045;-68
2024/03/25 02:35:44;;;;;;;13.63;4.05;;;6.70;99.90;;;;;;4163407;28;20107;-68
2024/03/25 02:37:45;;;;;;;15.10;3.72;;;6.70;99.90;;;;;;4164104;28;20047;-68
2024/03/25 02:39:45;;;;;;;19.70;4.35;;;6.70;99.90;;;;;;4163677;28;20509;-68
2024/03/25 02:41:46;;;;;;;11.13;3.67;;;6.60;99.90;;;;;;4161889;28;20029;-68
2024/03/25 02:43:47;;;;;;;17.42;3.78;;;6.60;99.90;;;;;;4162518;28;20037;-68
2024/03/25 02:45:48;;;;;;;9.43;3.22;;;6.60;99.90;;;;;;4163077;28;20056;-68
2024/03/25 02:47:48;;;;;;;15.43;3.17;;;6.60;99.90;;;;;;4162331;28;20486;-68
2024/03/25 02:49:49;;;;;;;10.45;2.97;;;6.60;99.90;;;;;;4162329;28;20030;-68
2024/03/25 02:51:50;;;;;;;10.02;3.17;;;6.60;99.90;;;;;;4158189;28;20391;-68
2024/03/25 02:53:51;;;;;;;16.33;3.85;;;6.60;99.90;;;;;;4160830;28;20039;-67
2024/03/25 02:55:51;;;;;;;17.00;3.70;;;6.60;99.90;;;;;;4160928;28;20072;-68
2024/03/25 02:57:52;;;;;;;14.25;3.30;;;6.60;99.90;;;;;;4163631;28;20030;-68
2024/03/25 02:59:52;;;;;;;14.38;3.67;;;6.60;99.90;;;;;;4159105;28;20037;-67
2024/03/25 03:01:53;;;;;;;16.65;3.45;;;6.60;99.90;;;;;;4162915;28;20350;-68
2024/03/25 03:03:53;;;;;;;16.33;4.20;;;6.60;99.90;;;;;;4162635;28;20036;-68
2024/03/25 03:05:54;;;;;;;13.18;3.53;;;6.60;99.90;;;;;;4162779;28;20064;-68
2024/03/25 03:07:55;;;;;;;15.80;4.32;;;6.60;99.90;;;;;;4155019;28;20037;-69
2024/03/25 03:09:55;;;;;;;15.30;4.55;;;6.60;99.90;;;;;;4163528;28;20043;-68
2024/03/25 03:11:56;;;;;;;12.90;3.65;;;6.60;99.90;;;;;;4162785;28;20026;-68
2024/03/25 03:13:56;;;;;;;19.23;4.43;;;6.60;99.90;;;;;;4163303;28;20083;-68
2024/03/25 03:15:57;;;;;;;16.35;4.00;;;6.60;99.90;;;;;;4162585;28;20445;-68
2024/03/25 03:17:57;;;;;;;12.45;3.60;;;6.60;99.90;;;;;;4163266;28;20033;-68
2024/03/25 03:19:58;;;;;;;19.10;4.97;;;6.60;99.90;;;;;;4163040;28;20036;-68
2024/03/25 03:21:58;;;;;;;18.85;4.38;;;6.60;99.90;;;;;;4162327;28;20090;-68
2024/03/25 03:23:59;;;;;;;13.10;4.30;;;6.60;99.90;;;;;;4162482;28;20036;-68
2024/03/25 03:26:00;;;;;;;14.70;3.55;;;6.50;99.90;;;;;;4161980;28;20030;-68
2024/03/25 03:28:02;;;;;;;11.73;3.28;;;6.60;99.90;;;;;;4161555;28;20041;-68
2024/03/25 03:30:03;;;;;;;14.57;3.73;;;6.60;99.90;;;;;;4162982;28;20026;-69
2024/03/25 03:32:04;;;;;;;14.63;3.88;;;6.60;99.90;;;;;;4160475;28;20264;-68
2024/03/25 03:34:04;;;;;;;15.45;3.92;;;6.60;99.90;;;;;;4160033;28;20052;-68
2024/03/25 03:36:05;;;;;;;14.75;4.10;;;6.60;99.90;;;;;;4162204;28;20033;-68
2024/03/25 03:38:06;;;;;;;11.10;3.70;;;6.70;99.90;;;;;;4163043;28;20054;-68
2024/03/25 03:40:08;;;;;;;16.70;3.92;;;6.70;99.90;;;;;;4160972;28;20048;-69
2024/03/25 03:42:08;;;;;;;9.48;3.15;;;6.70;99.90;;;;;;4161577;28;20479;-68
2024/03/25 03:44:09;;;;;;;12.43;4.50;;;6.70;99.90;;;;;;4162858;28;20117;-68
2024/03/25 03:46:10;;;;;;;19.83;4.45;;;6.70;99.90;;;;;;4162375;28;20033;-69
2024/03/25 03:48:10;;;;;;;16.52;4.60;;;6.70;99.90;;;;;;4162839;28;20621;-68
2024/03/25 03:50:11;;;;;;;17.13;4.68;;;6.70;99.90;;;;;;4159743;28;20029;-69
2024/03/25 03:52:12;;;;;;;12.93;4.15;;;6.70;99.90;;;;;;4162430;28;20029;-69
2024/03/25 03:54:12;;;;;;;13.27;3.80;;;6.60;99.90;;;;;;4163126;28;20080;-64
2024/03/25 03:56:13;;;;;;;13.45;4.40;;;6.60;99.90;;;;;;4162256;28;20059;-64
2024/03/25 03:58:13;;;;;;;13.10;4.30;;;6.60;99.90;;;;;;4162769;28;20116;-64
2024/03/25 04:00:14;;;;;;;15.45;4.18;;;6.60;99.90;;;;;;4161804;28;20485;-65
2024/03/25 04:02:15;;;;;;;15.63;4.50;;;6.60;99.90;;;;;;4162654;28;20029;-64
2024/03/25 04:04:15;;;;;;;15.52;4.03;;;6.60;99.90;;;;;;4162634;28;20121;-64
2024/03/25 04:06:16;;;;;;;15.25;4.47;;;6.70;99.90;;;;;;4161339;28;20482;-64
2024/03/25 04:08:17;;;;;;;20.20;4.55;;;6.70;99.90;;;;;;4161934;28;20041;-64
2024/03/25 04:10:17;;;;;;;12.20;3.85;;;6.70;99.90;;;;;;4162148;28;20049;-64
2024/03/25 04:12:19;;;;;;;14.13;4.60;;;6.80;99.90;;;;;;4162338;28;20048;-64
2024/03/25 04:14:19;;;;;;;14.13;4.45;;;6.70;99.90;;;;;;4160992;28;20053;-64
2024/03/25 04:16:22;;;;;;;11.95;3.72;;;6.80;99.90;;;;;;4158469;28;20060;-64
2024/03/25 04:18:23;;;;;;;15.32;4.13;;;6.80;99.90;;;;;;4161801;28;20041;-64
2024/03/25 04:20:23;;;;;;;16.77;4.63;;;6.80;99.90;;;;;;4161524;28;20111;-64
2024/03/25 04:22:24;;;;;;;13.77;4.38;;;6.80;99.90;;;;;;4162554;28;20029;-64
2024/03/25 04:24:26;;;;;;;15.82;4.35;;;6.80;99.90;;;;;;4160947;28;20091;-65
2024/03/25 04:26:27;;;;;;;20.88;4.70;;;6.70;99.90;;;;;;4159159;28;20121;-64
2024/03/25 04:28:27;;;;;;;12.82;3.95;;;6.70;99.90;;;;;;4162088;28;20029;-64
2024/03/25 04:30:28;;;;;;;10.00;3.53;;;6.80;99.90;;;;;;4161399;28;20166;-64
2024/03/25 04:32:29;;;;;;;12.60;3.70;;;6.80;99.90;;;;;;4162339;28;20143;-64
2024/03/25 04:34:30;;;;;;;13.20;4.40;;;6.80;99.90;;;;;;4161459;28;20044;-64
2024/03/25 04:36:31;;;;;;;18.67;4.35;;;6.70;99.90;;;;;;4161484;28;20390;-64
2024/03/25 04:38:31;;;;;;;13.25;4.15;;;6.80;99.90;;;;;;4161822;28;20040;-64
2024/03/25 04:40:32;;;;;;;13.50;3.45;;;6.70;99.90;;;;;;4161521;28;20040;-64
2024/03/25 04:42:32;;;;;;;9.27;3.60;;;6.70;99.90;;;;;;4162036;28;20091;-64
2024/03/25 04:44:33;;;;;;;14.32;3.88;;;6.70;99.90;;;;;;4159719;28;20116;-64
2024/03/25 04:46:33;;;;;;;12.70;4.00;;;6.70;99.90;;;;;;4158638;28;20040;-66
2024/03/25 04:48:34;;;;;;;10.07;4.18;;;6.70;99.90;;;;;;4160597;28;20030;-65
2024/03/25 04:50:34;;;;;;;13.27;4.20;;;6.80;99.90;;;;;;4156475;28;20056;-65
2024/03/25 04:52:35;;;;;;;12.00;4.05;;;6.80;99.90;;;;;;4162236;28;20033;-65
2024/03/25 04:54:36;;;;;;;8.73;3.78;;;6.80;99.90;;;;;;4160489;28;20044;-65
2024/03/25 04:56:36;;;;;;;13.45;4.50;;;6.80;99.90;;;;;;4161561;28;20064;-64
2024/03/25 04:58:38;;;;;;;14.05;4.05;;;6.80;99.90;;;;;;4161869;28;20032;-65
2024/03/25 05:00:39;;;;;;;16.85;4.40;;;6.80;99.90;;;;;;4156670;28;20533;-64
2024/03/25 05:02:39;;;;;;;12.10;3.72;;;6.80;99.90;;;;;;4162175;28;20026;-67
2024/03/25 05:04:40;;;;;;;15.82;4.30;;;6.80;99.90;;;;;;4161781;28;20395;-59
2024/03/25 05:06:40;;;;;;;11.48;4.07;;;6.80;99.90;;;;;;4161364;28;20332;-59
2024/03/25 05:08:41;;;;;;;11.13;4.13;;;6.80;99.90;;;;;;4160666;28;20057;-59
2024/03/25 05:10:42;;;;;;;15.43;4.25;;;6.80;99.90;;;;;;4161296;28;20079;-59
2024/03/25 05:12:44;;;;;;;11.50;4.30;;;6.90;99.90;;;;;;4160464;28;20504;-59
2024/03/25 05:14:44;;;;;;;11.20;4.13;;;6.80;99.90;;;;;;4159004;28;20029;-59
2024/03/25 05:16:45;;;;;;;16.40;4.85;;;6.90;99.90;;;;;;4158604;28;20469;-63
2024/03/25 05:18:45;;;;;;;14.55;4.60;;;6.90;99.90;;;;;;4158174;28;20060;-59
2024/03/25 05:20:46;;;;;;;10.20;3.85;;;6.90;99.90;;;;;;4157001;28;20029;-59
2024/03/25 05:22:46;;;;;;;13.63;4.65;;;6.90;99.90;;;;;;4159861;28;20091;-59
2024/03/25 05:24:47;;;;;;;9.68;4.20;;;6.90;99.90;;;;;;4159806;28;20455;-59
2024/03/25 05:26:48;;;;;;;14.38;4.20;;;6.90;99.90;;;;;;4159889;28;20025;-59
2024/03/25 05:28:55;;;;;;;11.10;3.92;;;6.90;99.90;;;;;;4164405;28;20058;-59
2024/03/25 05:30:56;;;;;;;13.30;4.68;;;7.00;99.90;;;;;;4164026;28;20029;-59
2024/03/25 05:32:57;;;;;;;14.10;4.50;;;7.00;99.90;;;;;;4164355;28;20049;-59
2024/03/25 05:34:57;;;;;;;14.27;4.20;;;7.00;99.90;;;;;;4164208;28;20025;-59
2024/03/25 05:36:58;;;;;;;9.68;3.80;;;7.00;99.90;;;;;;4164555;28;20343;-59
2024/03/25 05:38:59;;;;;;;11.25;4.07;;;7.00;99.90;;;;;;4164943;28;20128;-59
2024/03/25 05:41:00;;;;;;;11.10;4.38;;;7.00;99.90;;;;;;4162712;28;20410;-59
2024/03/25 05:43:01;;;;;;;11.30;3.83;;;7.00;99.90;;;;;;4162227;28;20033;-59
2024/03/25 05:45:01;;;;;;;9.45;3.67;;;7.00;99.90;;;;;;4164144;28;20474;-59
2024/03/25 05:47:02;;;;;;;12.43;4.40;;;7.00;99.90;;;;;;4164228;28;20022;-59
2024/03/25 05:49:03;;;;;;;10.80;3.60;;;7.00;99.90;;;;;;4165034;28;20037;-59
2024/03/25 05:51:06;;;;;;;12.95;4.22;;;7.10;99.90;;;;;;4164227;28;20033;-59
2024/03/25 05:53:06;;;;;;;11.73;4.00;;;7.10;99.90;;;;;;4157993;28;20030;-59
2024/03/25 05:55:09;;;;;;;11.13;3.83;;;7.10;99.90;;;;;;4164285;28;20057;-60
2024/03/25 05:57:10;;;;;;;13.95;5.05;;;7.10;99.90;;;;;;4162945;28;20473;-59
2024/03/25 05:59:10;;;;;;;10.68;4.10;;;7.10;99.90;;;;;;4164518;28;20095;-59
2024/03/25 06:01:11;;;;;;;8.93;4.13;;;7.00;99.90;;;;;;4163073;28;21057;-59
2024/03/25 06:03:12;;;;;;;19.52;5.18;;;7.10;99.90;;;;;;4163023;28;20033;-59
2024/03/25 06:05:12;;;;;;;13.52;4.47;;;7.10;99.90;;;;;;4163743;28;20037;-60
2024/03/25 06:07:13;;;;;;;14.00;4.78;;;7.10;99.90;;;;;;4164424;28;20030;-59
2024/03/25 06:09:13;;;;;;;10.93;4.20;;;7.00;99.90;;;;;;4163087;28;20037;-59
2024/03/25 06:11:14;;;;;;;8.23;4.15;;;7.00;99.90;;;;;;4163091;28;20028;-59
2024/03/25 06:13:15;;;;;;;17.45;5.47;;;7.00;99.90;;;;;;4164756;28;20109;-64
2024/03/25 06:15:15;;;;;;;10.38;4.25;;;7.00;99.90;;;;;;4163845;28;20497;-64
2024/03/25 06:17:16;;;;;;;10.32;4.40;;;7.00;99.90;;;;;;4163680;28;20030;-64
2024/03/25 06:19:17;;;;;;;10.90;4.78;;;7.00;99.90;;;;;;4162862;28;20045;-64
2024/03/25 06:21:18;;;;;;;11.18;4.35;;;7.10;99.90;;;;;;4162226;28;20490;-64
2024/03/25 06:23:28;;;;;;;11.68;4.45;;;7.10;99.90;;;;;;4162444;28;20112;-65
2024/03/25 06:25:29;;;;;;;17.13;5.85;;;7.10;99.90;;;;;;4162919;28;20039;-64
2024/03/25 06:27:31;;;;;;;15.38;5.50;;;7.10;99.90;;;;;;4160786;28;20053;-65
2024/03/25 06:29:32;;;;;;;15.10;5.53;;;7.20;99.90;;;;;;4162374;28;20029;-64
2024/03/25 06:36:10;;;;;;;10.75;4.72;;;7.40;99.90;;;;;;4163150;28;20025;-64
2024/03/25 06:38:11;;;;;;;15.10;4.63;;;7.40;99.90;;;;;;4153454;28;20036;-64
2024/03/25 06:40:12;;;;;;;10.30;4.70;;;7.40;99.90;;;;;;4162939;28;20040;-65
2024/03/25 06:42:12;;;;;;;13.63;4.85;;;7.30;99.90;;;;;;4161193;28;20498;-64
2024/03/25 06:44:13;;;;;;;17.10;5.25;;;7.30;99.90;;;;;;4152413;28;20470;-65
2024/03/25 06:46:14;;;;;;;10.82;4.53;;;7.40;99.90;;;;;;4162716;28;20060;-65
2024/03/25 06:48:14;;;;;;;12.50;5.07;;;7.40;99.90;;;;;;4162945;28;20030;-64
2024/03/25 06:50:15;;;;;;;12.70;4.53;;;7.40;99.90;;;;;;4148316;28;20034;-65
2024/03/25 06:52:15;;;;;;;8.63;4.00;;;7.50;99.90;;;;;;4161599;28;20497;-65
2024/03/25 06:54:17;;;;;;;12.70;4.25;;;7.60;99.90;;;;;;4153755;28;20433;-65
2024/03/25 06:56:17;;;;;;;9.70;3.95;;;7.90;99.90;;;;;;4159912;28;20037;-65
2024/03/25 06:58:19;;;;;;;15.98;5.25;;;8.00;99.90;;;;;;4162615;28;20090;-67
2024/03/25 07:00:22;;;;;;;7.57;4.07;;;8.50;99.90;;;;;;4161044;28;20088;-65
2024/03/25 07:02:22;;;;;;;10.48;4.75;;;8.80;99.90;;;;;;4151112;28;20044;-60
2024/03/25 07:04:23;;;;;;;9.88;4.28;;;9.10;99.90;;;;;;4156845;28;20025;-61
2024/03/25 07:06:25;;;;;;;11.70;4.93;;;9.50;99.90;;;;;;4149517;28;20068;-68
2024/03/25 07:08:27;;;;;;;10.23;4.28;;;9.70;99.90;;;;;;4153620;28;20520;-66
2024/03/25 07:10:27;;;;;;;13.53;4.17;;;9.80;99.90;;;;;;4155849;28;20040;-66
2024/03/25 07:12:28;;;;;;;13.93;4.85;;;9.90;99.90;;;;;;4157276;28;20292;-64
2024/03/25 07:14:29;;;;;;;12.15;5.10;;;9.80;99.90;;;;;;4158229;28;20026;-64
2024/03/25 07:16:29;;;;;;;14.85;5.57;;;9.80;99.90;;;;;;4155570;28;20061;-64
2024/03/25 07:18:30;;;;;;;11.50;4.65;;;9.80;99.90;;;;;;4156220;28;20022;-64
2024/03/25 07:20:31;;;;;;;11.68;4.57;;;9.70;99.90;;;;;;4138847;28;20046;-64
2024/03/25 07:22:31;;;;;;;9.95;4.20;;;9.60;99.90;;;;;;4157599;28;20060;-74
2024/03/25 07:24:32;;;;;;;13.75;4.65;;;9.60;99.90;;;;;;4157295;28;20554;-72
2024/03/25 07:26:33;;;;;;;10.93;4.32;;;9.50;99.90;;;;;;4155417;28;20744;-72
2024/03/25 07:28:33;;;;;;;12.20;4.88;;;9.50;99.90;;;;;;4144303;28;20033;-72
2024/03/25 07:30:34;;;;;;;9.05;3.97;;;9.40;99.90;;;;;;4152637;28;20512;-72
2024/03/25 07:32:35;;;;;;;11.25;4.75;;;9.40;99.90;;;;;;4158960;28;20061;-72
2024/03/25 07:34:35;;;;;;;8.93;4.68;;;9.60;99.90;;;;;;4158213;28;20061;-72
2024/03/25 07:36:36;;;;;;;8.10;3.67;;;9.70;99.90;;;;;;4153261;28;20045;-72
2024/03/25 07:38:37;;;;;;;11.23;4.00;;;9.90;99.90;;;;;;4143269;28;20437;-72
2024/03/25 07:40:38;;;;;;;12.68;4.80;;;10.00;99.90;;;;;;4149671;28;20057;-71
2024/03/25 07:42:39;;;;;;;12.40;4.20;;;10.20;99.90;;;;;;4148252;28;20510;-71
2024/03/25 07:44:39;;;;;;;11.13;4.50;;;10.40;99.90;;;;;;4152139;28;20033;-71
2024/03/25 07:46:40;;;;;;;8.57;3.85;;;10.60;99.90;;;;;;4142996;28;20478;-71
2024/03/25 07:48:42;;;;;;;11.77;4.50;;;10.80;99.90;;;;;;4155947;28;20037;-70
2024/03/25 07:50:42;;;;;;;13.53;4.47;;;10.90;99.90;;;;;;4153667;28;20475;-70
2024/03/25 07:52:43;;;;;;;12.00;3.88;;;11.20;99.90;;;;;;4145867;28;20315;-71
2024/03/25 07:54:43;;;;;;;9.85;3.78;;;11.40;99.90;;;;;;4134398;28;20063;-71
2024/03/25 07:56:44;;;;;;;12.95;4.38;;;11.60;99.90;;;;;;4155171;28;20034;-71
2024/03/25 07:58:45;;;;;;;13.60;4.40;;;11.80;99.90;;;;;;4156505;28;20052;-71
2024/03/25 08:00:46;;;;;;;9.98;3.70;;;11.90;99.90;;;;;;4155378;28;20041;-71
2024/03/25 08:02:46;;;;;;;10.60;3.72;;;12.00;99.90;;;;;;4155066;28;20029;-71
2024/03/25 08:04:47;;;;;;;8.30;3.70;;;12.10;99.90;;;;;;4153972;28;20029;-71
2024/03/25 08:06:48;;;;;;;10.05;3.33;;;12.40;99.90;;;;;;4153433;28;20065;-72
2024/03/25 08:08:49;;;;;;;8.93;3.85;;;12.50;99.90;;;;;;4155933;28;20490;-72
2024/03/25 08:10:49;;;;;;;10.70;3.90;;;12.50;99.90;;;;;;4154583;28;20329;-71
2024/03/25 08:12:50;;;;;;;11.32;3.70;;;12.60;99.90;;;;;;4156158;28;20029;-71
2024/03/25 08:14:50;;;;;;;10.15;3.65;;;12.70;99.90;;;;;;4155628;28;20466;-71
2024/03/25 08:16:51;;;;;;;10.55;3.92;;;12.70;99.90;;;;;;4151781;28;20068;-70
2024/03/25 08:18:51;;;;;;;10.65;3.70;;;12.80;99.90;;;;;;4158768;28;20034;-70
2024/03/25 08:20:52;;;;;;;10.65;4.38;;;12.90;99.90;;;;;;4156484;28;20025;-70
2024/03/25 08:22:52;;;;;;;11.18;4.35;;;12.80;99.90;;;;;;4157869;28;20443;-71
2024/03/25 08:24:53;;;;;;;11.02;4.40;;;12.90;99.90;;;;;;4157421;28;20434;-68
2024/03/25 08:26:54;;;;;;;13.55;4.70;;;12.90;99.90;;;;;;4158008;28;20072;-67
2024/03/25 08:28:55;;;;;;;8.90;3.72;;;13.00;99.90;;;;;;4157041;28;20447;-68
2024/03/25 08:30:55;;;;;;;12.02;4.45;;;13.10;99.90;;;;;;4158232;28;20033;-69
2024/03/25 08:32:56;;;;;;;9.82;4.13;;;13.10;99.90;;;;;;4158650;28;20025;-65
2024/03/25 08:34:57;;;;;;;10.10;3.92;;;13.10;99.90;;;;;;4157789;28;20421;-59
2024/03/25 08:36:57;;;;;;;14.75;4.68;;;13.20;99.90;;;;;;4157273;28;20021;-59
2024/03/25 08:38:58;;;;;;;10.55;3.90;;;13.20;99.90;;;;;;4152749;28;20110;-59
2024/03/25 08:40:58;;;;;;;14.75;4.18;;;13.20;99.90;;;;;;4151893;28;20038;-59
2024/03/25 08:42:59;;;;;;;12.93;3.97;;;13.20;99.90;;;;;;4156137;28;20486;-59
2024/03/25 08:45:00;;;;;;;11.82;4.07;;;13.00;99.90;;;;;;4158208;28;20057;-59
2024/03/25 08:47:00;;;;;;;11.32;3.80;;;13.10;99.90;;;;;;4156857;28;20099;-59
2024/03/25 08:49:01;;;;;;;10.38;3.65;;;13.10;99.90;;;;;;4158040;28;20029;-59
2024/03/25 08:51:03;;;;;;;13.68;4.10;;;13.10;99.90;;;;;;4157720;28;20040;-59
2024/03/25 08:53:04;;;;;;;8.82;3.28;;;13.00;99.90;;;;;;4158670;28;20552;-59
2024/03/25 08:55:06;;;;;;;11.20;3.78;;;13.00;99.90;;;;;;4157084;28;20029;-61
2024/03/25 08:57:06;;;;;;;14.02;3.40;;;13.10;99.90;;;;;;4157557;28;20247;-59
2024/03/25 08:59:09;;;;;;;9.82;3.72;;;13.20;99.90;;;;;;4158477;28;20505;-59
2024/03/25 09:01:14;;;;;;;;;;;13.10;99.90;;;;;;4188670;28;20036;-59
2024/03/25 09:03:14;;;;;;;9.00;3.47;;;13.20;99.90;;;;;;4160705;28;19963;-59
2024/03/25 09:05:18;;;;;;;11.10;3.40;;;13.20;99.90;;;;;;4156140;28;20037;-59
2024/03/25 09:07:18;;;;;;;10.63;3.22;;;13.20;99.90;;;;;;4159517;28;20057;-59
2024/03/25 09:11:38;;;;;;;8.43;2.60;;;13.30;99.90;;;;;;4138498;28;20065;-59
2024/03/25 09:13:39;;;;;;;14.20;3.22;;;13.20;99.90;;;;;;4162425;28;20032;-59
2024/03/25 09:15:39;;;;;;;10.65;3.30;;;13.20;99.90;;;;;;4160764;28;20108;-59
2024/03/25 09:17:40;;;;;;;10.48;3.00;;;13.10;99.90;;;;;;4160342;28;20029;-59
2024/03/25 09:19:41;;;;;;;8.07;2.92;;;13.10;99.90;;;;;;4161470;28;20049;-59
2024/03/25 09:21:41;;;;;;;11.98;3.78;;;13.10;99.90;;;;;;4161398;28;20516;-59
2024/03/25 09:23:42;;;;;;;14.27;2.92;;;13.10;99.90;;;;;;4161896;28;20367;-59
2024/03/25 09:25:54;;;;;;;14.50;3.63;;;13.00;99.90;;;;;;4159748;28;20494;-63
2024/03/25 09:27:55;;;;;;;12.80;2.88;;;13.10;99.90;;;;;;4157877;28;20041;-59
2024/03/25 09:29:56;;;;;;;9.90;3.38;;;13.10;99.90;;;;;;4160741;28;20045;-59
2024/03/25 09:31:56;;;;;;;8.85;2.65;;;13.10;99.90;;;;;;4160797;28;20088;-59
2024/03/25 09:33:57;;;;;;;12.80;3.35;;;13.10;99.90;;;;;;4161555;28;20036;-58
2024/03/25 09:35:57;;;;;;;9.27;2.97;;;13.00;99.90;;;;;;4159836;28;20029;-58
2024/03/25 09:37:58;;;;;;;7.30;2.35;;;13.10;99.90;;;;;;4161109;28;20033;-59
2024/03/25 09:39:59;;;;;;;10.55;3.10;;;13.10;99.90;;;;;;4161169;28;20417;-59
2024/03/25 09:42:06;;;;;;;5.95;2.42;;;13.20;99.90;;;;;;4160203;28;20474;-59
2024/03/25 09:44:07;;;;;;;8.10;2.78;;;13.20;99.90;;;;;;4160547;28;20041;-59
2024/03/25 09:46:07;;;;;;;9.20;2.70;;;13.20;99.90;;;;;;4160330;28;20124;-59
2024/03/25 09:48:08;;;;;;;11.80;3.00;;;13.20;99.90;;;;;;4160615;28;20535;-59
2024/03/25 09:50:12;;;;;;;11.60;2.78;;;13.10;99.90;;;;;;4160755;28;20033;-60
2024/03/25 09:52:13;;;;;;;9.18;2.90;;;13.10;99.90;;;;;;4158580;28;20111;-64
2024/03/25 09:54:14;;;;;;;7.78;2.67;;;13.00;99.90;;;;;;4159923;28;20083;-59
2024/03/25 09:56:15;;;;;;;9.20;2.70;;;13.00;99.90;;;;;;4158939;28;20061;-60
2024/03/25 09:58:17;;;;;;;8.52;2.90;;;13.00;99.90;;;;;;4159583;28;20129;-59
2024/03/25 10:00:18;;;;;;;11.07;3.50;;;13.10;99.90;;;;;;4160388;28;20052;-59
2024/03/25 10:02:19;;;;;;;8.63;2.95;;;13.00;99.90;;;;;;4161540;28;20120;-59
2024/03/25 10:04:20;;;;;;;7.78;2.60;;;13.10;99.90;;;;;;4159787;28;20040;-59
2024/03/25 10:06:21;;;;;;;5.82;2.60;;;13.10;99.90;;;;;;4158930;28;20067;-58
2024/03/25 10:08:22;;;;;;;13.60;3.95;;;13.20;99.90;;;;;;4162144;28;20049;-59
2024/03/25 10:10:22;;;;;;;9.85;3.22;;;13.20;99.90;;;;;;4160943;28;20140;-59
2024/03/25 10:12:23;;;;;;;9.20;2.70;;;13.20;99.90;;;;;;4160996;28;20494;-58
2024/03/25 10:14:24;;;;;;;7.43;2.85;;;13.10;99.90;;;;;;4158250;28;20542;-60
2024/03/25 10:16:24;;;;;;;17.00;4.20;;;13.20;99.90;;;;;;4159993;28;20048;-60
2024/03/25 10:18:25;;;;;;;8.98;3.20;;;13.20;99.90;;;;;;4161559;28;20046;-59
2024/03/25 10:20:25;;;;;;;7.47;2.40;;;13.10;99.90;;;;;;4159758;28;20069;-59
2024/03/25 10:22:26;;;;;;;11.23;3.53;;;13.20;99.90;;;;;;4161369;28;20064;-59
2024/03/25 10:24:36;;;;;;;13.02;3.22;;;13.20;99.90;;;;;;4160418;28;21525;-59
2024/03/25 10:26:38;;;;;;;8.77;3.60;;;13.20;99.90;;;;;;4161659;28;20030;-58
2024/03/25 10:28:38;;;;;;;13.52;4.03;;;13.30;99.90;;;;;;4161642;28;20041;-59
2024/03/25 10:30:40;;;;;;;16.25;3.72;;;13.20;99.90;;;;;;4159691;28;20116;-58
2024/03/25 10:32:41;;;;;;;9.23;2.80;;;13.20;99.90;;;;;;4157039;28;20379;-59
2024/03/25 10:34:42;;;;;;;7.88;3.05;;;13.20;99.90;;;;;;4158811;28;20045;-59